Time;durP1;ratioP1;P1;durP2;ratioP2;P2;SDS_P1;SDS_P2;PMS_P1;PMS_P2;Temp;Humidity;BMP_temperature;BMP_pressure;BME280_temperature;BME280_humidity;BME280_pressure;Samples;Min_cycle;Max_cycle;Signal;HPM_P1;HPM_P2
2022/08/02 00:00:51;;;;;;;3.33;2.73;;;18.30;99.90;;;;;;4999888;28;20178;-69
2022/08/02 00:03:17;;;;;;;2.53;2.33;;;18.30;99.90;;;;;;4999399;28;20197;-69
2022/08/02 00:05:43;;;;;;;4.20;2.30;;;18.20;99.90;;;;;;4999603;28;20181;-70
2022/08/02 00:08:08;;;;;;;5.07;2.53;;;18.20;99.90;;;;;;5014909;28;20294;-69
2022/08/02 00:10:34;;;;;;;4.80;2.37;;;18.20;99.90;;;;;;4999598;28;20174;-70
2022/08/02 00:13:00;;;;;;;2.27;2.07;;;18.20;99.90;;;;;;5014761;28;20185;-69
2022/08/02 00:15:26;;;;;;;4.67;3.07;;;18.20;99.90;;;;;;4999389;28;20190;-69
2022/08/02 00:17:52;;;;;;;3.47;2.67;;;18.20;99.90;;;;;;4998032;28;20297;-69
2022/08/02 00:20:18;;;;;;;4.17;2.70;;;18.20;99.90;;;;;;4999410;28;20253;-70
2022/08/02 00:22:43;;;;;;;3.60;3.23;;;18.20;99.90;;;;;;5014724;28;20174;-69
2022/08/02 00:25:09;;;;;;;2.73;2.53;;;18.40;99.90;;;;;;4999257;28;20475;-67
2022/08/02 00:27:35;;;;;;;7.67;2.80;;;18.30;99.90;;;;;;4999411;28;20182;-68
2022/08/02 00:30:01;;;;;;;3.47;2.50;;;18.30;99.90;;;;;;4999230;28;20248;-68
2022/08/02 00:32:27;;;;;;;3.07;2.40;;;18.40;99.90;;;;;;4998934;28;20174;-68
2022/08/02 00:34:52;;;;;;;4.73;2.97;;;18.50;99.90;;;;;;4999306;28;20178;-69
2022/08/02 00:37:18;;;;;;;3.05;2.40;;;18.60;99.90;;;;;;5014488;28;20174;-70
2022/08/02 00:39:44;;;;;;;7.53;3.70;;;18.50;99.90;;;;;;4999018;28;20222;-69
2022/08/02 00:42:12;;;;;;;6.47;2.80;;;18.40;99.90;;;;;;4999022;28;20240;-71
2022/08/02 00:44:38;;;;;;;3.07;2.10;;;18.40;99.90;;;;;;4998590;28;20260;-71
2022/08/02 00:47:04;;;;;;;2.60;2.33;;;18.20;99.90;;;;;;4998729;28;20212;-71
2022/08/02 00:49:30;;;;;;;2.70;2.50;;;18.20;99.90;;;;;;4998848;28;20636;-70
2022/08/02 00:51:56;;;;;;;2.20;2.00;;;18.10;99.90;;;;;;4998843;28;20570;-69
2022/08/02 00:54:22;;;;;;;2.83;2.63;;;18.10;99.90;;;;;;4998912;28;20190;-69
2022/08/02 00:56:48;;;;;;;3.97;2.70;;;18.10;99.90;;;;;;4998730;28;20284;-69
2022/08/02 00:59:13;;;;;;;7.27;2.63;;;18.00;99.90;;;;;;4998691;28;20276;-69
2022/08/02 01:01:40;;;;;;;3.50;2.47;;;17.90;99.90;;;;;;5013752;28;20522;-70
2022/08/02 01:04:13;;;;;;;5.50;2.50;;;17.90;99.90;;;;;;4998776;28;20249;-73
2022/08/02 01:06:40;;;;;;;2.87;2.67;;;17.80;99.90;;;;;;4998681;28;20170;-70
2022/08/02 01:09:07;;;;;;;4.30;2.30;;;17.80;99.90;;;;;;4998708;28;20212;-70
2022/08/02 01:11:34;;;;;;;5.03;2.47;;;17.80;99.90;;;;;;4998611;28;20204;-71
2022/08/02 01:14:10;;;;;;;5.03;3.47;;;17.90;99.90;;;;;;4998223;28;20568;-71
2022/08/02 01:16:52;;;;;;;3.10;2.90;;;18.00;99.90;;;;;;4998342;28;20209;-72
2022/08/02 01:19:36;;;;;;;5.30;2.97;;;18.00;99.90;;;;;;4998531;28;20292;-70
2022/08/02 01:22:19;;;;;;;4.13;2.90;;;18.00;99.90;;;;;;4998610;28;20182;-70
2022/08/02 01:25:24;;;;;;;5.83;2.73;;;18.00;99.90;;;;;;4998539;28;20201;-69
2022/08/02 01:28:27;;;;;;;4.70;3.13;;;18.00;99.90;;;;;;4997644;28;20213;-70
2022/08/02 01:31:00;;;;;;;3.07;2.33;;;17.80;99.90;;;;;;4999085;28;20178;-71
2022/08/02 01:33:31;;;;;;;3.00;2.80;;;17.40;99.90;;;;;;4998985;28;20171;-70
2022/08/02 01:35:59;;;;;;;3.07;2.87;;;17.20;99.90;;;;;;4998312;28;20174;-68
2022/08/02 01:38:28;;;;;;;3.70;2.20;;;17.10;99.90;;;;;;4997921;28;20292;-70
2022/08/02 01:40:57;;;;;;;3.83;2.40;;;17.10;99.90;;;;;;5013294;28;20188;-70
2022/08/02 01:43:25;;;;;;;3.40;2.93;;;17.00;99.90;;;;;;4997653;28;20176;-72
2022/08/02 01:45:52;;;;;;;4.60;2.73;;;16.90;99.90;;;;;;4998068;28;20188;-68
2022/08/02 01:48:19;;;;;;;3.53;3.20;;;17.00;99.90;;;;;;4997727;28;20174;-73
2022/08/02 01:50:47;;;;;;;3.40;3.17;;;17.00;99.90;;;;;;4996940;28;20177;-71
2022/08/02 01:53:17;;;;;;;4.00;3.60;;;16.80;99.90;;;;;;4997757;28;20518;-71
2022/08/02 01:55:49;;;;;;;2.83;2.63;;;16.80;99.90;;;;;;4997094;28;20209;-69
2022/08/02 01:58:18;;;;;;;3.33;2.77;;;16.60;99.90;;;;;;4997145;28;20625;-73
2022/08/02 02:00:46;;;;;;;3.20;2.83;;;16.70;99.90;;;;;;4997711;28;20174;-71
2022/08/02 02:03:15;;;;;;;3.00;2.73;;;16.40;99.90;;;;;;5012945;28;20540;-70
2022/08/02 02:05:43;;;;;;;5.10;2.53;;;12.90;99.90;;;;;;4997603;28;20228;-73
2022/08/02 02:08:09;;;;;;;3.30;2.97;;;14.00;99.90;;;;;;4997281;28;20582;-69
2022/08/02 02:10:37;;;;;;;3.50;3.20;;;14.50;99.90;;;;;;5012743;28;20193;-70
2022/08/02 02:13:11;;;;;;;6.33;3.23;;;14.90;99.90;;;;;;4997252;28;20206;-68
2022/08/02 02:15:45;;;;;;;3.53;2.77;;;14.90;99.90;;;;;;4997478;28;20656;-69
2022/08/02 02:18:17;;;;;;;2.80;2.60;;;15.10;99.90;;;;;;4997143;28;20598;-69
2022/08/02 02:20:43;;;;;;;3.33;3.00;;;15.00;99.90;;;;;;4997433;28;20558;-69
2022/08/02 02:23:10;;;;;;;3.33;3.03;;;15.40;99.90;;;;;;4997061;28;20195;-69
2022/08/02 02:25:39;;;;;;;2.60;2.40;;;15.50;99.90;;;;;;4997338;28;20305;-69
2022/08/02 02:28:11;;;;;;;2.87;2.60;;;15.50;99.90;;;;;;5012161;28;20185;-69
2022/08/02 02:30:46;;;;;;;4.23;3.37;;;15.40;99.90;;;;;;4997200;28;20174;-68
2022/08/02 02:33:16;;;;;;;2.80;2.60;;;15.20;99.90;;;;;;4996862;28;20191;-67
2022/08/02 02:35:43;;;;;;;4.83;2.63;;;15.10;99.90;;;;;;4996987;28;20170;-68
2022/08/02 02:38:12;;;;;;;2.97;2.60;;;15.10;99.90;;;;;;4996709;28;20293;-68
2022/08/02 02:40:40;;;;;;;4.60;3.20;;;15.00;99.90;;;;;;4996965;28;20198;-69
2022/08/02 02:43:08;;;;;;;2.70;2.50;;;15.10;99.90;;;;;;4996551;28;20181;-70
2022/08/02 02:45:35;;;;;;;3.17;2.80;;;15.10;99.90;;;;;;4996826;28;20493;-69
2022/08/02 02:48:02;;;;;;;3.47;3.27;;;15.10;99.90;;;;;;4995671;28;20181;-69
2022/08/02 02:50:29;;;;;;;3.03;2.73;;;15.20;99.90;;;;;;4996914;28;20174;-69
2022/08/02 02:52:57;;;;;;;2.97;2.77;;;14.90;99.90;;;;;;4996664;28;20186;-69
2022/08/02 02:55:24;;;;;;;3.53;2.67;;;14.90;99.90;;;;;;5012024;28;20182;-68
2022/08/02 02:57:50;;;;;;;3.30;3.10;;;15.00;99.90;;;;;;4996578;28;20190;-70
2022/08/02 03:00:17;;;;;;;3.10;3.00;;;15.40;99.90;;;;;;4996446;28;20197;-69
2022/08/02 03:02:44;;;;;;;3.70;3.40;;;15.40;99.90;;;;;;4996407;28;20178;-70
2022/08/02 03:05:12;;;;;;;4.40;3.53;;;15.40;99.90;;;;;;4996631;28;20170;-69
2022/08/02 03:07:38;;;;;;;3.77;3.50;;;15.50;99.90;;;;;;4996506;28;20224;-69
2022/08/02 03:10:05;;;;;;;2.70;2.50;;;15.50;99.90;;;;;;4996311;28;20166;-69
2022/08/02 03:12:33;;;;;;;3.40;3.10;;;15.40;99.90;;;;;;4996345;28;20178;-70
2022/08/02 03:15:03;;;;;;;5.00;3.20;;;15.50;99.90;;;;;;4996503;28;20285;-70
2022/08/02 03:17:39;;;;;;;7.30;3.37;;;15.50;99.90;;;;;;4996563;28;20194;-70
2022/08/02 03:20:16;;;;;;;3.30;3.10;;;15.50;99.90;;;;;;4996861;28;20165;-70
2022/08/02 03:22:43;;;;;;;3.90;3.60;;;15.50;99.90;;;;;;4998956;28;20169;-71
2022/08/02 03:25:11;;;;;;;3.53;2.93;;;15.50;99.90;;;;;;5003064;28;20182;-71
2022/08/02 03:27:37;;;;;;;3.50;3.30;;;15.60;99.90;;;;;;5003217;28;20213;-71
2022/08/02 03:30:05;;;;;;;5.87;4.00;;;15.70;99.90;;;;;;5002105;28;20162;-70
2022/08/02 03:32:32;;;;;;;7.77;4.17;;;15.30;99.90;;;;;;5001361;28;20178;-69
2022/08/02 03:34:58;;;;;;;7.83;4.27;;;15.70;99.90;;;;;;4996689;28;20215;-68
2022/08/02 03:37:26;;;;;;;9.73;4.93;;;15.60;99.90;;;;;;4996272;28;20245;-69
2022/08/02 03:39:52;;;;;;;4.17;3.47;;;15.50;99.90;;;;;;4996031;28;20261;-68
2022/08/02 03:42:20;;;;;;;4.07;2.73;;;15.20;99.90;;;;;;5011399;28;20483;-69
2022/08/02 03:44:47;;;;;;;4.03;3.53;;;15.10;99.90;;;;;;4996306;28;20278;-70
2022/08/02 03:47:14;;;;;;;5.57;4.10;;;15.30;99.90;;;;;;4996332;28;20240;-68
2022/08/02 03:49:41;;;;;;;6.73;4.47;;;15.20;99.90;;;;;;4996252;28;20236;-68
2022/08/02 03:52:08;;;;;;;6.77;4.13;;;14.90;99.90;;;;;;4996411;28;20621;-69
2022/08/02 03:54:33;;;;;;;4.40;3.97;;;15.20;99.90;;;;;;4995838;28;20225;-69
2022/08/02 03:56:59;;;;;;;5.07;4.63;;;15.10;99.90;;;;;;4996214;28;20170;-69
2022/08/02 03:59:25;;;;;;;6.03;5.63;;;15.20;99.90;;;;;;4995908;28;20201;-70
2022/08/02 04:01:51;;;;;;;4.43;4.03;;;15.30;99.90;;;;;;4996096;28;20170;-69
2022/08/02 04:04:16;;;;;;;4.53;3.90;;;15.40;99.90;;;;;;4995924;28;20171;-68
2022/08/02 04:06:42;;;;;;;5.20;3.57;;;14.60;99.90;;;;;;4996084;28;20174;-68
2022/08/02 04:09:09;;;;;;;4.73;4.33;;;15.10;99.90;;;;;;5010995;28;20194;-68
2022/08/02 04:11:36;;;;;;;8.13;5.40;;;14.80;99.90;;;;;;4995894;28;20201;-69
2022/08/02 04:14:06;;;;;;;4.77;3.97;;;15.40;99.90;;;;;;4995807;28;20174;-68
2022/08/02 04:16:47;;;;;;;8.73;4.43;;;15.90;99.90;;;;;;4995675;28;20234;-69
2022/08/02 04:20:08;;;;;;;4.47;4.17;;;16.20;99.90;;;;;;4998340;28;20224;-68
2022/08/02 04:22:44;;;;;;;4.17;3.77;;;16.50;99.90;;;;;;4985204;28;20628;-70
2022/08/02 04:25:10;;;;;;;5.40;4.83;;;16.60;99.90;;;;;;4999529;28;20257;-69
2022/08/02 04:27:37;;;;;;;4.20;3.63;;;16.70;99.90;;;;;;4999432;28;20166;-69
2022/08/02 04:30:05;;;;;;;5.27;4.50;;;16.40;99.90;;;;;;4999242;28;20166;-70
2022/08/02 04:32:31;;;;;;;7.93;4.80;;;16.10;99.90;;;;;;4999214;28;20205;-70
2022/08/02 04:34:57;;;;;;;4.67;4.20;;;16.10;99.90;;;;;;4999198;28;20598;-71
2022/08/02 04:37:24;;;;;;;4.80;4.40;;;15.90;99.90;;;;;;4998936;28;20170;-70
2022/08/02 04:39:49;;;;;;;5.40;3.80;;;15.90;99.90;;;;;;4999083;28;20236;-69
2022/08/02 04:42:23;;;;;;;5.40;4.50;;;16.00;99.90;;;;;;4999163;28;20209;-69
2022/08/02 04:44:51;;;;;;;7.53;5.27;;;16.20;99.90;;;;;;4998949;28;20324;-70
2022/08/02 04:47:17;;;;;;;6.57;4.43;;;16.30;99.90;;;;;;4999047;28;20170;-69
2022/08/02 04:49:43;;;;;;;8.50;4.27;;;16.30;99.90;;;;;;5014091;28;20186;-70
2022/08/02 04:52:09;;;;;;;5.33;4.37;;;16.10;99.90;;;;;;4998693;28;20502;-69
2022/08/02 04:54:34;;;;;;;5.10;3.80;;;16.10;99.90;;;;;;4998875;28;20178;-69
2022/08/02 04:57:00;;;;;;;5.60;4.30;;;15.90;99.90;;;;;;4998802;28;20174;-70
2022/08/02 04:59:26;;;;;;;5.70;4.70;;;-14.50;99.90;;;;;;4998647;28;20476;-68
2022/08/02 05:01:51;;;;;;;4.37;3.97;;;-12.60;99.90;;;;;;4998574;28;20257;-70
2022/08/02 05:04:17;;;;;;;4.37;3.80;;;-13.00;99.90;;;;;;4998639;28;20456;-69
2022/08/02 05:06:43;;;;;;;9.97;5.10;;;-13.10;99.90;;;;;;4998333;28;20205;-70
2022/08/02 05:09:09;;;;;;;9.00;5.20;;;-12.20;99.90;;;;;;4998658;28;20181;-69
2022/08/02 05:11:37;;;;;;;4.67;4.33;;;-11.20;99.90;;;;;;4998265;28;20201;-69
2022/08/02 05:14:04;;;;;;;4.40;4.00;;;-10.50;99.90;;;;;;4998475;28;20573;-70
2022/08/02 05:16:30;;;;;;;4.73;4.40;;;-10.40;99.90;;;;;;4997347;28;20221;-71
2022/08/02 05:18:56;;;;;;;4.83;4.47;;;-10.60;99.90;;;;;;4997414;28;20198;-70
2022/08/02 05:21:21;;;;;;;5.97;4.73;;;-10.20;99.90;;;;;;4996874;28;20645;-69
2022/08/02 05:23:47;;;;;;;4.37;3.97;;;-12.30;99.90;;;;;;4997335;28;20233;-70
2022/08/02 05:26:13;;;;;;;6.07;5.37;;;-10.90;99.90;;;;;;4997135;28;20185;-70
2022/08/02 05:28:39;;;;;;;8.30;4.30;;;-10.50;99.90;;;;;;4997510;28;20185;-70
2022/08/02 05:31:04;;;;;;;11.87;6.27;;;-11.70;99.90;;;;;;4996247;28;20170;-70
2022/08/02 05:33:30;;;;;;;4.90;4.50;;;-15.10;99.90;;;;;;4997258;28;20178;-70
2022/08/02 05:35:57;;;;;;;7.90;5.63;;;-17.30;99.90;;;;;;4996856;28;20177;-70
2022/08/02 05:38:23;;;;;;;5.70;5.20;;;-12.80;99.90;;;;;;4997006;28;20197;-70
2022/08/02 05:40:49;;;;;;;7.70;5.90;;;-10.10;99.90;;;;;;4997059;28;20166;-69
2022/08/02 05:43:15;;;;;;;6.10;5.50;;;-14.40;99.90;;;;;;4997176;28;20620;-70
2022/08/02 05:45:41;;;;;;;6.87;6.23;;;-20.10;99.90;;;;;;5012392;28;20241;-71
2022/08/02 05:48:07;;;;;;;6.00;5.40;;;-18.60;99.90;;;;;;4997212;28;20182;-69
2022/08/02 05:50:38;;;;;;;6.90;5.97;;;-15.60;99.90;;;;;;4996847;28;20162;-70
2022/08/02 05:53:20;;;;;;;6.93;5.83;;;-14.00;99.90;;;;;;5001185;28;20560;-71
2022/08/02 05:56:17;;;;;;;7.50;6.60;;;-14.80;99.90;;;;;;5004460;28;20178;-70
2022/08/02 05:58:52;;;;;;;7.40;6.20;;;-16.00;99.90;;;;;;4995511;28;20625;-70
2022/08/02 06:01:28;;;;;;;9.27;6.87;;;-14.50;99.90;;;;;;4996662;28;20476;-70
2022/08/02 06:03:57;;;;;;;6.57;5.97;;;-16.00;99.90;;;;;;4996822;28;20835;-69
2022/08/02 06:06:25;;;;;;;8.33;7.37;;;-14.70;99.90;;;;;;4996522;28;20216;-69
2022/08/02 06:08:58;;;;;;;12.20;7.33;;;-13.20;99.90;;;;;;5012151;28;20581;-69
2022/08/02 06:11:36;;;;;;;12.00;7.40;;;-14.70;99.90;;;;;;5011705;28;20640;-70
2022/08/02 06:14:05;;;;;;;8.47;7.57;;;-13.90;99.90;;;;;;4996685;28;20520;-69
2022/08/02 06:16:31;;;;;;;9.07;7.17;;;-15.50;99.90;;;;;;4955077;28;1216297;-71
2022/08/02 06:18:58;;;;;;;9.80;6.97;;;-12.60;99.90;;;;;;4997056;28;20208;-70
2022/08/02 06:21:25;;;;;;;9.07;7.20;;;-13.20;99.90;;;;;;4997140;28;20166;-71
2022/08/02 06:23:51;;;;;;;6.63;6.07;;;-14.30;99.90;;;;;;4997101;28;20176;-69
2022/08/02 06:26:17;;;;;;;6.90;6.27;;;-13.80;99.90;;;;;;4997201;28;20228;-71
2022/08/02 06:28:46;;;;;;;8.00;5.70;;;-14.80;99.90;;;;;;4996932;28;20182;-70
2022/08/02 06:31:13;;;;;;;6.00;5.40;;;-18.40;99.90;;;;;;4997144;28;20588;-70
2022/08/02 06:33:40;;;;;;;4.73;4.37;;;-18.70;99.90;;;;;;4996795;28;20566;-69
2022/08/02 06:36:26;;;;;;;5.10;4.53;;;-22.20;99.90;;;;;;4996959;28;20566;-69
2022/08/02 06:39:18;;;;;;;7.03;5.73;;;-20.80;99.90;;;;;;4996890;28;20232;-71
2022/08/02 06:41:48;;;;;;;4.73;4.10;;;-23.10;99.90;;;;;;4996823;28;20265;-69
2022/08/02 06:44:14;;;;;;;4.17;3.60;;;-23.10;99.90;;;;;;4996627;28;20274;-69
2022/08/02 06:46:41;;;;;;;7.27;4.57;;;-20.60;99.90;;;;;;4996787;28;20170;-70
2022/08/02 06:49:07;;;;;;;4.73;2.80;;;-23.60;99.90;;;;;;5011828;28;20184;-69
2022/08/02 06:51:32;;;;;;;5.73;3.33;;;-21.80;99.90;;;;;;4996656;28;20178;-69
2022/08/02 06:53:58;;;;;;;3.17;2.67;;;-26.70;99.90;;;;;;4995530;28;20181;-71
2022/08/02 06:56:24;;;;;;;2.70;2.23;;;-23.80;99.90;;;;;;4996529;28;20189;-69
2022/08/02 06:58:50;;;;;;;4.30;2.77;;;-25.10;99.90;;;;;;4996482;28;20205;-70
2022/08/02 07:01:17;;;;;;;4.40;2.13;;;-23.30;99.90;;;;;;4996688;28;20166;-70
2022/08/02 07:03:43;;;;;;;4.63;2.87;;;-21.10;99.90;;;;;;4996105;28;20174;-69
2022/08/02 07:06:09;;;;;;;4.83;2.50;;;-15.70;99.90;;;;;;4996680;28;20167;-69
2022/08/02 07:08:37;;;;;;;2.23;2.10;;;-16.70;99.90;;;;;;4996365;28;20182;-71
2022/08/02 07:11:07;;;;;;;2.23;2.03;;;-16.20;99.90;;;;;;4996604;28;20178;-69
2022/08/02 07:13:34;;;;;;;7.80;2.53;;;-17.70;99.90;;;;;;5011538;28;20236;-70
2022/08/02 07:16:01;;;;;;;7.97;3.07;;;-15.00;99.90;;;;;;4996426;28;20193;-70
2022/08/02 07:18:27;;;;;;;2.80;2.60;;;-15.70;99.90;;;;;;4995874;28;20293;-70
2022/08/02 07:20:53;;;;;;;3.80;3.03;;;-15.30;99.90;;;;;;4996508;28;20190;-69
2022/08/02 07:23:19;;;;;;;2.97;2.43;;;-19.70;99.90;;;;;;4996322;28;20170;-70
2022/08/02 07:25:46;;;;;;;5.53;2.97;;;-23.40;99.90;;;;;;4996305;28;20170;-70
2022/08/02 07:28:14;;;;;;;3.13;2.47;;;-21.50;99.90;;;;;;4996233;28;20185;-70
2022/08/02 07:30:41;;;;;;;14.80;3.93;;;-19.30;99.90;;;;;;4996361;28;20494;-71
2022/08/02 07:33:07;;;;;;;3.60;2.93;;;-21.60;99.90;;;;;;4995909;28;20174;-70
2022/08/02 07:35:32;;;;;;;2.73;2.50;;;-22.00;99.90;;;;;;4996198;28;20181;-69
2022/08/02 07:37:59;;;;;;;2.80;2.43;;;-17.90;99.90;;;;;;4996169;28;20197;-70
2022/08/02 07:40:25;;;;;;;4.83;2.13;;;-23.40;99.90;;;;;;4996047;28;20293;-71
2022/08/02 07:42:54;;;;;;;4.20;2.67;;;-18.20;99.90;;;;;;4996167;28;20166;-70
2022/08/02 07:45:21;;;;;;;3.10;2.90;;;-20.70;99.90;;;;;;4996099;28;20178;-72
2022/08/02 07:47:47;;;;;;;4.10;3.23;;;-22.60;99.90;;;;;;4995915;28;20471;-71
2022/08/02 07:50:15;;;;;;;7.00;2.67;;;-14.80;99.90;;;;;;4995854;28;20174;-70
2022/08/02 07:52:41;;;;;;;3.70;2.27;;;-20.80;99.90;;;;;;4996442;28;20170;-73
2022/08/02 07:55:08;;;;;;;2.33;2.23;;;12.00;99.90;;;;;;5000053;28;20184;-71
2022/08/02 07:57:34;;;;;;;3.13;1.63;;;20.80;99.90;;;;;;4999889;28;20468;-70
2022/08/02 08:00:00;;;;;;;3.07;1.43;;;20.80;99.90;;;;;;4999594;28;20201;-70
2022/08/02 08:02:26;;;;;;;2.43;1.77;;;20.90;99.90;;;;;;5015083;28;20228;-70
2022/08/02 08:04:52;;;;;;;2.00;1.83;;;20.80;99.90;;;;;;4999631;28;20177;-70
2022/08/02 08:07:19;;;;;;;5.80;2.43;;;20.90;99.90;;;;;;4999799;28;20172;-70
2022/08/02 08:09:46;;;;;;;2.27;1.70;;;20.90;99.90;;;;;;4999767;28;20256;-71
2022/08/02 08:12:14;;;;;;;1.40;1.30;;;20.80;99.90;;;;;;4999682;28;20182;-69
2022/08/02 08:14:39;;;;;;;3.13;1.37;;;20.70;99.90;;;;;;4999348;28;20174;-71
2022/08/02 08:17:06;;;;;;;1.67;1.47;;;21.60;99.90;;;;;;5014812;28;20213;-70
2022/08/02 08:19:32;;;;;;;5.97;2.50;;;21.80;99.90;;;;;;4999434;28;20194;-69
2022/08/02 08:21:59;;;;;;;3.90;2.53;;;22.00;99.90;;;;;;5014920;28;20169;-70
2022/08/02 08:24:26;;;;;;;2.87;1.10;;;21.90;99.90;;;;;;4999297;28;20189;-69
2022/08/02 08:26:52;;;;;;;2.10;1.13;;;21.60;99.90;;;;;;4999548;28;20171;-70
2022/08/02 08:29:18;;;;;;;2.67;1.73;;;21.10;99.90;;;;;;4998991;28;20175;-70
2022/08/02 08:31:44;;;;;;;2.20;1.50;;;21.00;99.90;;;;;;4999228;28;20600;-72
2022/08/02 08:34:10;;;;;;;1.47;1.37;;;21.20;99.90;;;;;;4999218;28;20174;-70
2022/08/02 08:36:36;;;;;;;3.60;1.90;;;21.20;99.90;;;;;;4999055;28;20178;-69
2022/08/02 08:39:03;;;;;;;2.27;1.53;;;21.10;99.90;;;;;;4999290;28;20205;-70
2022/08/02 08:41:29;;;;;;;4.40;2.27;;;20.90;99.90;;;;;;4999071;28;20585;-70
2022/08/02 08:43:54;;;;;;;4.53;1.93;;;20.40;99.90;;;;;;4998689;28;20174;-72
2022/08/02 08:46:26;;;;;;;2.07;1.53;;;20.40;99.90;;;;;;5014123;28;20181;-71
2022/08/02 08:48:59;;;;;;;3.00;1.73;;;21.90;99.90;;;;;;4998954;28;20178;-72
2022/08/02 08:51:29;;;;;;;1.87;1.40;;;22.50;99.90;;;;;;4998812;28;20167;-71
2022/08/02 08:53:58;;;;;;;17.97;2.57;;;22.60;99.90;;;;;;4998933;28;20258;-71
2022/08/02 08:56:31;;;;;;;6.00;2.00;;;22.60;99.90;;;;;;5013980;28;20182;-70
2022/08/02 08:58:57;;;;;;;3.97;1.70;;;22.70;99.90;;;;;;5013686;28;20202;-71
2022/08/02 09:01:22;;;;;;;5.30;1.30;;;22.70;99.90;;;;;;4998581;28;20585;-73
2022/08/02 09:03:48;;;;;;;8.33;2.63;;;22.50;99.90;;;;;;4998448;28;20213;-70
2022/08/02 09:06:14;;;;;;;3.30;2.40;;;23.20;99.90;;;;;;4998593;28;20264;-70
2022/08/02 09:08:40;;;;;;;3.60;2.17;;;23.30;99.90;;;;;;4998701;28;20166;-71
2022/08/02 09:11:17;;;;;;;3.20;1.63;;;23.40;99.90;;;;;;4998566;28;20253;-70
2022/08/02 09:13:57;;;;;;;1.73;1.63;;;22.90;99.90;;;;;;4998235;28;20165;-77
2022/08/02 09:16:33;;;;;;;4.03;1.63;;;-40.00;90.20;;;;;;5013390;28;20201;-71
2022/08/02 09:19:01;;;;;;;1.60;1.50;;;-40.00;88.00;;;;;;4998381;28;20496;-70
2022/08/02 09:21:35;;;;;;;3.13;2.03;;;-40.00;87.70;;;;;;5013590;28;20174;-71
2022/08/02 09:24:01;;;;;;;5.37;2.00;;;-40.00;87.90;;;;;;4998633;28;20162;-71
2022/08/02 09:26:27;;;;;;;1.50;1.40;;;-40.00;87.20;;;;;;5013833;28;20170;-71
2022/08/02 09:28:59;;;;;;;1.60;1.10;;;-40.00;87.40;;;;;;4999068;28;20189;-71
2022/08/02 09:31:25;;;;;;;2.53;1.50;;;-40.00;88.10;;;;;;5000117;28;20253;-72
2022/08/02 09:33:57;;;;;;;3.47;1.33;;;-40.00;88.70;;;;;;5000233;28;20186;-70
2022/08/02 09:36:23;;;;;;;1.57;1.47;;;-40.00;88.40;;;;;;5002865;28;20193;-73
2022/08/02 09:39:04;;;;;;;1.50;1.40;;;-40.00;86.30;;;;;;5015547;28;20198;-73
2022/08/02 09:41:34;;;;;;;1.20;1.10;;;-40.00;85.50;;;;;;4999680;28;20254;-73
2022/08/02 09:44:02;;;;;;;2.90;1.40;;;21.80;99.90;;;;;;4998073;28;20174;-70
2022/08/02 09:46:31;;;;;;;2.97;1.00;;;24.50;99.90;;;;;;5013703;28;20480;-71
2022/08/02 09:49:11;;;;;;;1.37;1.27;;;24.40;99.90;;;;;;4998262;28;20193;-73
2022/08/02 09:51:38;;;;;;;1.60;1.47;;;24.10;99.90;;;;;;4998059;28;20182;-71
2022/08/02 09:54:12;;;;;;;2.70;1.33;;;23.70;99.90;;;;;;5013437;28;20171;-72
2022/08/02 09:56:49;;;;;;;4.00;1.93;;;24.00;99.90;;;;;;4997616;28;20166;-72
2022/08/02 09:59:17;;;;;;;3.93;1.60;;;23.90;99.90;;;;;;4997891;28;20225;-72
2022/08/02 10:01:44;;;;;;;2.90;1.17;;;24.00;99.90;;;;;;4997953;28;20162;-71
2022/08/02 10:04:13;;;;;;;2.63;1.97;;;23.90;99.90;;;;;;4998044;28;20197;-70
2022/08/02 10:06:43;;;;;;;1.03;1.03;;;24.20;99.90;;;;;;4998093;28;20170;-73
2022/08/02 10:09:11;;;;;;;3.27;1.73;;;24.10;99.90;;;;;;5017251;28;20181;-73
2022/08/02 10:11:37;;;;;;;1.10;1.07;;;24.00;99.90;;;;;;5002972;28;20194;-72
2022/08/02 10:14:05;;;;;;;1.73;1.63;;;24.00;99.90;;;;;;5001706;28;20182;-72
2022/08/02 10:16:33;;;;;;;2.43;1.33;;;24.30;99.90;;;;;;4996704;28;20196;-71
2022/08/02 10:19:01;;;;;;;2.20;1.73;;;24.40;99.90;;;;;;4997362;28;20635;-71
2022/08/02 10:21:35;;;;;;;2.93;1.40;;;24.20;99.90;;;;;;5012776;28;20173;-72
2022/08/02 10:24:09;;;;;;;2.03;1.57;;;-40.00;78.40;;;;;;4997327;28;20179;-72
2022/08/02 10:26:37;;;;;;;2.67;1.30;;;24.70;99.90;;;;;;4996868;28;20450;-72
2022/08/02 10:29:04;;;;;;;3.40;1.27;;;25.60;99.90;;;;;;4997526;28;20202;-71
2022/08/02 10:31:40;;;;;;;4.47;1.63;;;25.40;99.90;;;;;;4996855;28;20181;-71
2022/08/02 10:34:11;;;;;;;5.17;1.73;;;25.30;99.90;;;;;;4996830;28;20198;-72
2022/08/02 10:36:40;;;;;;;6.17;1.37;;;25.10;99.90;;;;;;5012242;28;20185;-73
2022/08/02 10:39:06;;;;;;;7.07;1.80;;;-40.00;70.60;;;;;;4996661;28;20251;-69
2022/08/02 10:41:50;;;;;;;4.20;1.40;;;26.40;99.90;;;;;;4996372;28;20180;-71
2022/08/02 10:44:35;;;;;;;4.33;1.53;;;26.60;99.80;;;;;;4996630;28;20166;-72
2022/08/02 10:47:22;;;;;;;2.57;1.00;;;26.40;96.40;;;;;;4996706;28;20170;-70
2022/08/02 10:49:55;;;;;;;1.17;1.10;;;26.00;96.70;;;;;;4996641;28;20162;-72
2022/08/02 10:52:31;;;;;;;2.30;1.37;;;25.90;97.80;;;;;;5011942;28;20177;-73
2022/08/02 10:55:08;;;;;;;3.57;2.70;;;25.90;98.90;;;;;;4996455;28;20607;-70
2022/08/02 10:57:35;;;;;;;3.63;1.23;;;25.80;98.50;;;;;;4996500;28;20162;-70
2022/08/02 11:00:08;;;;;;;3.20;1.00;;;25.90;99.50;;;;;;5011884;28;20205;-72
2022/08/02 11:02:40;;;;;;;1.60;1.50;;;26.10;98.40;;;;;;5011787;28;20174;-72
2022/08/02 11:05:08;;;;;;;1.50;0.97;;;26.10;99.00;;;;;;4996470;28;20656;-72
2022/08/02 11:07:36;;;;;;;6.70;1.27;;;26.20;97.70;;;;;;4996507;28;20562;-71
2022/08/02 11:10:24;;;;;;;2.33;0.80;;;26.00;96.20;;;;;;4996145;28;20170;-72
2022/08/02 11:13:03;;;;;;;2.20;1.50;;;25.80;96.50;;;;;;4996336;28;20177;-71
2022/08/02 11:15:37;;;;;;;2.03;1.80;;;25.70;97.10;;;;;;4996258;28;20196;-70
2022/08/02 11:18:03;;;;;;;1.07;1.00;;;25.70;96.50;;;;;;4996205;28;20213;-72
2022/08/02 11:20:29;;;;;;;2.10;1.00;;;25.60;96.50;;;;;;4996568;28;20574;-71
2022/08/02 11:23:47;;;;;;;4.13;1.17;;;25.80;96.30;;;;;;4996131;28;20162;-71
2022/08/02 11:26:30;;;;;;;1.47;1.37;;;26.00;95.90;;;;;;4995035;28;20216;-72
2022/08/02 11:29:01;;;;;;;2.00;1.27;;;26.00;95.10;;;;;;4995321;28;20176;-71
2022/08/02 11:31:28;;;;;;;5.63;1.17;;;25.60;95.00;;;;;;4995031;28;20177;-72
2022/08/02 11:33:54;;;;;;;1.37;1.27;;;26.60;93.70;;;;;;4995990;28;20227;-71
2022/08/02 11:36:20;;;;;;;0.80;0.80;;;26.60;94.40;;;;;;5011453;28;20174;-73
2022/08/02 11:38:46;;;;;;;1.10;1.10;;;26.60;93.20;;;;;;4995595;28;20239;-73
2022/08/02 11:41:22;;;;;;;1.60;1.10;;;26.40;93.30;;;;;;5011213;28;20174;-73
2022/08/02 11:43:56;;;;;;;2.77;1.20;;;19.80;90.40;;;;;;5011204;28;20178;-71
2022/08/02 11:46:22;;;;;;;1.33;0.83;;;27.20;91.60;;;;;;4996007;28;20303;-72
2022/08/02 11:48:48;;;;;;;1.33;0.90;;;27.10;92.30;;;;;;4995999;28;20253;-72
2022/08/02 11:51:15;;;;;;;4.53;0.97;;;26.80;92.00;;;;;;4995829;28;20267;-71
2022/08/02 11:53:42;;;;;;;2.23;1.00;;;26.90;92.20;;;;;;5010870;28;20205;-72
2022/08/02 11:56:09;;;;;;;3.40;1.03;;;27.10;92.50;;;;;;4995954;28;20239;-72
2022/08/02 11:58:35;;;;;;;2.63;1.03;;;27.40;93.00;;;;;;4995811;28;20205;-70
2022/08/02 12:01:01;;;;;;;1.80;1.00;;;27.10;92.30;;;;;;4995732;28;20177;-71
2022/08/02 12:03:26;;;;;;;6.53;1.23;;;26.10;92.00;;;;;;4995720;28;20167;-70
2022/08/02 12:05:53;;;;;;;1.10;1.07;;;-40.00;52.60;;;;;;4995715;28;20176;-72
2022/08/02 12:08:21;;;;;;;1.10;0.97;;;-40.00;52.70;;;;;;4995611;28;20170;-71
2022/08/02 12:10:48;;;;;;;1.20;1.00;;;-40.00;52.80;;;;;;4995976;28;20182;-70
2022/08/02 12:13:14;;;;;;;2.03;1.20;;;-40.00;52.50;;;;;;4995712;28;20185;-72
2022/08/02 12:15:45;;;;;;;0.70;0.70;;;-40.00;51.60;;;;;;4995503;28;20190;-71
2022/08/02 12:21:00;;;;;;;1.00;1.00;;;28.70;91.20;;;;;;4995522;28;20177;-71
2022/08/02 12:23:26;;;;;;;1.83;1.03;;;28.30;92.10;;;;;;4995711;28;20166;-71
2022/08/02 12:26:18;;;;;;;0.70;0.70;;;28.50;90.90;;;;;;4995897;28;20632;-71
2022/08/02 12:28:44;;;;;;;4.23;1.13;;;28.10;91.10;;;;;;4995486;28;20182;-73
2022/08/02 12:31:16;;;;;;;1.20;1.10;;;27.30;91.40;;;;;;4995609;28;20233;-74
2022/08/02 12:33:53;;;;;;;1.17;1.07;;;25.80;91.00;;;;;;4995681;28;20177;-70
2022/08/02 12:36:25;;;;;;;13.33;1.50;;;-40.00;54.00;;;;;;4995193;28;20197;-71
2022/08/02 12:38:59;;;;;;;2.47;1.10;;;-40.00;53.20;;;;;;4996361;28;20198;-70
2022/08/02 12:41:26;;;;;;;1.43;1.10;;;2.20;76.40;;;;;;4999001;28;20219;-71
2022/08/02 12:43:52;;;;;;;1.90;0.70;;;29.60;90.20;;;;;;4999020;28;20636;-69
2022/08/02 12:46:20;;;;;;;1.70;1.10;;;29.70;90.60;;;;;;4998881;28;20301;-72
2022/08/02 12:48:46;;;;;;;1.27;1.17;;;29.70;90.30;;;;;;5014314;28;20198;-71
2022/08/02 12:51:25;;;;;;;3.17;0.63;;;29.80;89.20;;;;;;4998550;28;20251;-71
2022/08/02 12:53:52;;;;;;;1.07;0.80;;;29.90;89.30;;;;;;4998984;28;20162;-72
2022/08/02 12:56:32;;;;;;;3.08;0.93;;;28.20;87.10;;;;;;5013920;28;20610;-70